createdAt,value
2018-07-07T00:01:23.495Z,19.21
2018-07-07T00:03:52.206Z,19.20
2018-07-07T00:06:20.814Z,19.21
2018-07-07T00:08:49.440Z,19.14
2018-07-07T00:11:18.084Z,19.09
2018-07-07T00:13:47.432Z,19.09
2018-07-07T00:16:16.131Z,19.11
2018-07-07T00:18:44.903Z,19.09
2018-07-07T00:21:13.474Z,19.02
2018-07-07T00:23:42.352Z,18.91
2018-07-07T00:26:11.550Z,18.80
2018-07-07T00:28:41.198Z,18.62
2018-07-07T00:31:10.628Z,18.57
2018-07-07T00:33:39.190Z,18.57
2018-07-07T00:36:08.187Z,18.59
2018-07-07T00:38:37.419Z,18.57
2018-07-07T00:41:06.234Z,18.58
2018-07-07T00:43:34.970Z,18.54
2018-07-07T00:46:03.689Z,18.49
2018-07-07T00:48:32.245Z,18.50
2018-07-07T00:51:01.086Z,18.52
2018-07-07T00:53:29.755Z,18.49
2018-07-07T00:55:58.363Z,18.45
2018-07-07T00:58:28.399Z,18.31
2018-07-07T01:00:57.023Z,18.28
2018-07-07T01:03:25.633Z,18.27
2018-07-07T01:05:54.492Z,18.26
2018-07-07T01:08:23.375Z,18.24
2018-07-07T01:10:52.015Z,18.21
2018-07-07T01:13:20.882Z,18.30
2018-07-07T01:15:49.463Z,18.34
2018-07-07T01:18:18.464Z,18.35
2018-07-07T01:20:47.459Z,18.29
2018-07-07T01:23:16.104Z,18.30
2018-07-07T01:25:44.768Z,18.28
2018-07-07T01:28:13.329Z,18.27
2018-07-07T01:30:42.367Z,18.33
2018-07-07T01:33:10.953Z,18.30
2018-07-07T01:35:40.367Z,18.23
2018-07-07T01:38:09.829Z,18.25
2018-07-07T01:40:39.948Z,18.26
2018-07-07T01:43:08.589Z,18.20
2018-07-07T01:45:37.231Z,18.17
2018-07-07T01:48:06.213Z,18.15
2018-07-07T01:50:35.246Z,18.12
2018-07-07T01:53:04.500Z,18.09
2018-07-07T01:55:33.281Z,18.07
2018-07-07T01:58:03.650Z,18.03
2018-07-07T02:00:33.018Z,17.99
2018-07-07T02:03:02.329Z,17.95
2018-07-07T02:05:32.617Z,17.94
2018-07-07T02:08:01.934Z,17.93
2018-07-07T02:10:31.839Z,17.89
2018-07-07T02:13:01.325Z,17.90
2018-07-07T02:15:32.024Z,17.89
2018-07-07T02:18:00.636Z,17.89
2018-07-07T02:20:29.206Z,17.87
2018-07-07T02:22:57.808Z,17.92
2018-07-07T02:25:26.405Z,17.89
2018-07-07T02:27:55.055Z,17.81
2018-07-07T02:30:24.506Z,17.77
2018-07-07T02:32:53.964Z,17.70
2018-07-07T02:35:22.582Z,17.65
2018-07-07T02:37:51.444Z,17.67
2018-07-07T02:40:20.038Z,17.67
2018-07-07T02:42:48.726Z,17.64
2018-07-07T02:45:17.415Z,17.65
2018-07-07T02:47:46.227Z,17.58
2018-07-07T02:50:14.888Z,17.56
2018-07-07T02:52:44.367Z,17.55
2018-07-07T02:55:12.937Z,17.49
2018-07-07T02:57:41.551Z,17.47
2018-07-07T03:00:10.212Z,17.50
2018-07-07T03:02:38.772Z,17.48
2018-07-07T03:05:09.078Z,17.40
2018-07-07T03:07:37.963Z,17.35
2018-07-07T03:10:06.785Z,17.41
2018-07-07T03:12:36.106Z,17.44
2018-07-07T03:15:04.887Z,17.49
2018-07-07T03:17:33.949Z,17.49
2018-07-07T03:20:02.647Z,17.47
2018-07-07T03:22:31.243Z,17.39
2018-07-07T03:24:59.873Z,17.30
2018-07-07T03:27:29.326Z,17.33
2018-07-07T03:29:58.879Z,17.35
2018-07-07T03:32:28.720Z,17.31
2018-07-07T03:34:57.545Z,17.31
2018-07-07T03:37:27.387Z,17.28
2018-07-07T03:39:57.317Z,17.29
2018-07-07T03:42:28.263Z,17.32
2018-07-07T03:44:57.328Z,17.39
2018-07-07T03:47:26.037Z,17.45
2018-07-07T03:49:54.594Z,17.44
2018-07-07T03:52:24.027Z,17.43
2018-07-07T03:54:52.609Z,17.39
2018-07-07T03:57:21.855Z,17.33
2018-07-07T03:59:50.483Z,17.33
2018-07-07T04:02:19.209Z,17.38
2018-07-07T04:04:48.499Z,17.41
2018-07-07T04:07:17.780Z,17.43
2018-07-07T04:09:46.750Z,17.40
2018-07-07T04:12:16.230Z,17.41
2018-07-07T04:14:45.351Z,17.42
2018-07-07T04:17:15.433Z,17.40
2018-07-07T04:19:44.379Z,17.46
2018-07-07T04:22:13.274Z,17.44
2018-07-07T04:24:42.598Z,17.49
2018-07-07T04:27:11.177Z,17.64
2018-07-07T04:29:39.822Z,17.72
2018-07-07T04:32:08.641Z,17.74
2018-07-07T04:34:37.490Z,17.77
2018-07-07T04:37:06.696Z,17.81
2018-07-07T04:39:35.313Z,17.89
2018-07-07T04:42:03.958Z,17.93
2018-07-07T04:44:32.719Z,17.98
2018-07-07T04:47:02.186Z,18.06
2018-07-07T04:49:30.766Z,18.13
2018-07-07T04:51:59.395Z,18.14
2018-07-07T04:54:28.000Z,18.17
2018-07-07T04:56:56.631Z,18.18
2018-07-07T04:59:25.888Z,18.23
2018-07-07T05:01:54.613Z,18.20
2018-07-07T05:04:24.347Z,18.22
2018-07-07T05:06:53.459Z,18.25
2018-07-07T05:09:22.177Z,18.27
2018-07-07T05:11:50.818Z,18.30
2018-07-07T05:14:19.399Z,18.38
2018-07-07T05:16:51.380Z,18.43
2018-07-07T05:19:21.617Z,18.39
2018-07-07T05:21:50.734Z,18.45
2018-07-07T05:24:19.483Z,18.58
2018-07-07T05:26:49.564Z,18.65
2018-07-07T05:29:18.429Z,18.71
2018-07-07T05:31:47.382Z,18.80
2018-07-07T05:34:16.307Z,18.90
2018-07-07T05:36:44.989Z,19.01
2018-07-07T05:39:14.024Z,19.11
2018-07-07T05:41:42.837Z,19.20
2018-07-07T05:44:11.639Z,19.25
2018-07-07T05:46:40.677Z,19.33
2018-07-07T05:49:09.932Z,19.40
2018-07-07T05:51:38.627Z,19.38
2018-07-07T05:54:07.432Z,19.39
2018-07-07T05:56:36.128Z,19.47
2018-07-07T05:59:06.019Z,19.57
2018-07-07T06:01:34.736Z,19.62
2018-07-07T06:04:03.781Z,19.69
2018-07-07T06:06:32.461Z,19.73
2018-07-07T06:09:02.449Z,19.76
2018-07-07T06:11:31.505Z,19.74
2018-07-07T06:14:00.152Z,19.74
2018-07-07T06:16:28.861Z,19.77
2018-07-07T06:18:57.686Z,19.88
2018-07-07T06:21:27.424Z,19.98
2018-07-07T06:23:57.281Z,20.12
2018-07-07T06:26:26.024Z,20.27
2018-07-07T06:28:54.752Z,20.41
2018-07-07T06:31:23.453Z,20.51
2018-07-07T06:33:52.105Z,20.62
2018-07-07T06:36:21.728Z,20.63
2018-07-07T06:38:50.329Z,20.72
2018-07-07T06:41:18.925Z,20.90
2018-07-07T06:43:47.634Z,21.00
2018-07-07T06:46:16.205Z,21.00
2018-07-07T06:48:44.938Z,21.04
2018-07-07T06:51:13.583Z,21.13
2018-07-07T06:53:42.560Z,21.23
2018-07-07T06:56:11.686Z,21.36
2018-07-07T06:58:40.364Z,21.57
2018-07-07T07:01:09.207Z,21.70
2018-07-07T07:03:37.790Z,21.84
2018-07-07T07:06:08.763Z,21.99
2018-07-07T07:08:37.465Z,22.19
2018-07-07T07:11:06.214Z,22.29
2018-07-07T07:13:34.968Z,22.31
2018-07-07T07:16:03.652Z,22.44
2018-07-07T07:18:32.258Z,22.57
2018-07-07T07:21:00.892Z,22.64
2018-07-07T07:23:29.724Z,22.63
2018-07-07T07:25:58.539Z,22.82
2018-07-07T07:28:27.148Z,22.86
2018-07-07T07:30:56.383Z,22.74
2018-07-07T07:33:25.333Z,22.73
2018-07-07T07:35:54.849Z,22.73
2018-07-07T07:38:23.701Z,22.63
2018-07-07T07:40:52.360Z,22.63
2018-07-07T07:43:21.892Z,22.70
2018-07-07T07:45:50.928Z,22.87
2018-07-07T07:48:19.681Z,23.01
2018-07-07T07:50:48.316Z,22.71
2018-07-07T07:53:17.092Z,22.73
2018-07-07T07:55:45.716Z,22.98
2018-07-07T07:58:15.390Z,23.22
2018-07-07T08:00:44.034Z,23.33
2018-07-07T08:03:13.048Z,23.43
2018-07-07T08:05:41.656Z,23.59
2018-07-07T08:08:10.320Z,23.76
2018-07-07T08:10:38.907Z,23.87
2018-07-07T08:13:07.523Z,23.99
2018-07-07T08:15:37.095Z,24.17
2018-07-07T08:18:06.078Z,23.92
2018-07-07T08:20:34.922Z,23.99
2018-07-07T08:23:03.898Z,24.18
2018-07-07T08:25:32.673Z,24.12
2018-07-07T08:28:01.291Z,24.27
2018-07-07T08:30:29.947Z,24.30
2018-07-07T08:32:58.540Z,24.26
2018-07-07T08:35:27.597Z,24.34
2018-07-07T08:37:56.320Z,24.40
2018-07-07T08:40:24.985Z,24.69
2018-07-07T08:42:53.629Z,25.02
2018-07-07T08:45:22.299Z,24.99
2018-07-07T08:47:51.108Z,24.89
2018-07-07T08:50:19.966Z,25.22
2018-07-07T08:52:48.714Z,25.47
2018-07-07T08:55:17.466Z,25.76
2018-07-07T08:57:46.441Z,25.57
2018-07-07T09:00:18.223Z,25.92
2018-07-07T09:02:47.047Z,26.17
2018-07-07T09:05:15.962Z,26.33
2018-07-07T09:07:44.553Z,26.24
2018-07-07T09:10:13.229Z,26.30
2018-07-07T09:12:41.897Z,26.48
2018-07-07T09:15:10.529Z,26.60
2018-07-07T09:17:39.192Z,26.85
2018-07-07T09:20:09.151Z,26.99
2018-07-07T09:22:38.630Z,26.97
2018-07-07T09:25:07.298Z,26.74
2018-07-07T09:27:35.928Z,26.97
2018-07-07T09:30:05.068Z,27.01
2018-07-07T09:32:33.829Z,26.39
2018-07-07T09:35:03.089Z,26.16
2018-07-07T09:37:34.452Z,26.34
2018-07-07T09:40:03.801Z,25.90
2018-07-07T09:42:34.109Z,26.13
2018-07-07T09:45:03.471Z,26.24
2018-07-07T09:47:32.360Z,25.98
2018-07-07T09:50:01.067Z,26.10
2018-07-07T09:52:30.688Z,25.96
2018-07-07T09:54:59.388Z,25.63
2018-07-07T09:57:29.902Z,25.69
2018-07-07T10:00:00.219Z,25.76
2018-07-07T10:02:28.996Z,25.43
2018-07-07T10:04:59.321Z,25.37
2018-07-07T10:07:28.105Z,25.53
2018-07-07T10:09:56.848Z,25.75
2018-07-07T10:12:25.633Z,25.75
2018-07-07T10:14:54.442Z,26.13
2018-07-07T10:17:24.140Z,26.18
2018-07-07T10:19:53.636Z,26.35
2018-07-07T10:22:22.305Z,26.21
2018-07-07T10:24:51.012Z,26.34
2018-07-07T10:27:19.665Z,26.47
2018-07-07T10:29:48.647Z,26.43
2018-07-07T10:32:17.367Z,25.80
2018-07-07T10:34:46.084Z,26.07
2018-07-07T10:37:15.810Z,26.43
2018-07-07T10:39:48.195Z,26.72
2018-07-07T10:42:18.455Z,26.83
2018-07-07T10:44:49.202Z,26.99
2018-07-07T10:47:17.956Z,27.31
2018-07-07T10:49:47.885Z,27.26
2018-07-07T10:52:22.544Z,27.12
2018-07-07T10:54:52.920Z,27.62
2018-07-07T10:57:23.329Z,27.85
2018-07-07T10:59:53.357Z,27.90
2018-07-07T11:02:24.391Z,27.78
2018-07-07T11:04:54.717Z,27.66
2018-07-07T11:07:24.812Z,27.33
2018-07-07T11:09:56.945Z,27.10
2018-07-07T11:12:28.299Z,26.87
2018-07-07T11:14:57.547Z,26.72
2018-07-07T11:17:26.209Z,26.69
2018-07-07T11:19:54.940Z,26.81
2018-07-07T11:22:23.841Z,27.12
2018-07-07T11:24:53.270Z,27.06
2018-07-07T11:27:21.937Z,27.09
2018-07-07T11:29:52.521Z,27.47
2018-07-07T11:32:21.301Z,27.26
2018-07-07T11:34:50.019Z,27.29
2018-07-07T11:37:19.155Z,27.15
2018-07-07T11:39:47.801Z,27.32
2018-07-07T11:42:16.487Z,27.30
2018-07-07T11:44:46.653Z,27.38
2018-07-07T11:47:17.201Z,27.45
2018-07-07T11:49:45.881Z,27.23
2018-07-07T11:52:15.313Z,27.21
2018-07-07T11:54:44.977Z,26.55
2018-07-07T11:57:16.324Z,26.46
2018-07-07T11:59:47.042Z,26.56
2018-07-07T12:02:16.034Z,27.17
2018-07-07T12:04:44.779Z,27.48
2018-07-07T12:07:13.447Z,27.77
2018-07-07T12:09:43.044Z,27.97
2018-07-07T12:12:12.818Z,28.04
2018-07-07T12:14:41.548Z,28.20
2018-07-07T12:17:13.888Z,28.19
2018-07-07T12:19:43.567Z,28.22
2018-07-07T12:22:14.039Z,28.13
2018-07-07T12:24:44.481Z,28.20
2018-07-07T12:27:13.299Z,28.34
2018-07-07T12:29:41.998Z,28.25
2018-07-07T12:32:10.996Z,28.21
2018-07-07T12:34:39.691Z,28.32
2018-07-07T12:37:08.569Z,28.34
2018-07-07T12:39:37.633Z,28.09
2018-07-07T12:42:06.326Z,28.28
2018-07-07T12:44:35.024Z,28.43
2018-07-07T12:47:04.162Z,28.65
2018-07-07T12:49:33.536Z,28.78
2018-07-07T12:52:02.482Z,28.60
2018-07-07T12:54:31.059Z,28.44
2018-07-07T12:56:59.841Z,28.05
2018-07-07T12:59:28.923Z,27.88
2018-07-07T13:01:58.081Z,28.35
2018-07-07T13:04:26.747Z,29.06
2018-07-07T13:06:55.525Z,29.99
2018-07-07T13:09:25.345Z,31.57
2018-07-07T13:11:54.084Z,31.80
2018-07-07T13:14:22.838Z,30.72
2018-07-07T13:16:51.695Z,29.49
2018-07-07T13:19:20.828Z,29.45
2018-07-07T13:21:49.984Z,29.10
2018-07-07T13:24:19.328Z,28.65
2018-07-07T13:26:48.906Z,29.65
2018-07-07T13:29:18.302Z,30.48
2018-07-07T13:31:46.936Z,29.85
2018-07-07T13:34:16.234Z,29.15
2018-07-07T13:36:45.525Z,29.01
2018-07-07T13:39:14.381Z,29.08
2018-07-07T13:41:43.015Z,30.27
2018-07-07T13:44:11.754Z,31.27
2018-07-07T13:46:40.477Z,32.73
2018-07-07T13:49:09.258Z,33.10
2018-07-07T13:51:38.262Z,33.38
2018-07-07T13:54:07.217Z,34.18
2018-07-07T13:56:36.306Z,34.63
2018-07-07T13:59:05.006Z,33.21
2018-07-07T14:01:33.843Z,32.75
2018-07-07T14:04:02.470Z,32.12
2018-07-07T14:06:31.726Z,32.36
2018-07-07T14:09:00.440Z,33.00
2018-07-07T14:11:29.636Z,33.36
2018-07-07T14:13:58.295Z,33.71
2018-07-07T14:16:27.524Z,33.95
2018-07-07T14:18:56.390Z,33.78
2018-07-07T14:21:25.010Z,33.73
2018-07-07T14:23:53.668Z,32.96
2018-07-07T14:26:22.385Z,32.61
2018-07-07T14:28:51.060Z,32.79
2018-07-07T14:31:19.758Z,32.71
2018-07-07T14:33:48.626Z,32.52
2018-07-07T14:36:17.269Z,32.25
2018-07-07T14:38:45.923Z,31.91
2018-07-07T14:41:17.550Z,32.03
2018-07-07T14:44:01.098Z,31.96
2018-07-07T14:46:30.360Z,31.77
2018-07-07T14:48:59.017Z,31.46
2018-07-07T14:51:27.895Z,31.71
2018-07-07T14:53:56.915Z,31.77
2018-07-07T14:56:26.530Z,31.87
2018-07-07T14:58:56.087Z,31.79
2018-07-07T15:01:24.741Z,31.89
2018-07-07T15:03:53.444Z,31.36
2018-07-07T15:06:23.086Z,31.09
2018-07-07T15:08:51.832Z,31.42
2018-07-07T15:11:20.966Z,31.64
2018-07-07T15:13:49.785Z,31.77
2018-07-07T15:16:18.447Z,31.68
2018-07-07T15:18:47.607Z,31.27
2018-07-07T15:21:16.429Z,31.38
2018-07-07T15:23:45.171Z,31.27
2018-07-07T15:26:13.871Z,30.92
2018-07-07T15:28:42.549Z,30.80
2018-07-07T15:31:11.813Z,30.71
2018-07-07T15:33:40.471Z,30.40
2018-07-07T15:36:09.193Z,30.51
2018-07-07T15:38:38.336Z,30.60
2018-07-07T15:41:07.104Z,30.50
2018-07-07T15:43:36.351Z,30.60
2018-07-07T15:46:05.136Z,30.57
2018-07-07T15:48:33.801Z,30.33
2018-07-07T15:51:02.661Z,30.36
2018-07-07T15:53:31.302Z,30.22
2018-07-07T15:55:59.925Z,29.80
2018-07-07T15:58:28.538Z,30.02
2018-07-07T16:00:57.171Z,29.85
2018-07-07T16:03:26.122Z,29.72
2018-07-07T16:05:55.026Z,29.59
2018-07-07T16:08:23.637Z,29.56
2018-07-07T16:10:52.297Z,29.55
2018-07-07T16:13:20.851Z,29.23
2018-07-07T16:15:49.481Z,29.13
2018-07-07T16:18:18.082Z,29.05
2018-07-07T16:20:46.702Z,29.10
2018-07-07T16:23:15.968Z,29.15
2018-07-07T16:25:44.637Z,29.14
2018-07-07T16:28:13.485Z,29.25
2018-07-07T16:30:42.191Z,29.21
2018-07-07T16:33:11.097Z,28.99
2018-07-07T16:35:39.781Z,28.66
2018-07-07T16:38:09.642Z,28.69
2018-07-07T16:40:38.661Z,29.01
2018-07-07T16:43:07.631Z,28.86
2018-07-07T16:45:36.403Z,28.82
2018-07-07T16:48:05.507Z,28.75
2018-07-07T16:50:34.137Z,28.67
2018-07-07T16:53:02.811Z,28.37
2018-07-07T16:55:31.504Z,28.25
2018-07-07T16:58:00.876Z,28.24
2018-07-07T17:00:29.617Z,28.10
2018-07-07T17:02:58.740Z,27.94
2018-07-07T17:05:27.574Z,27.86
2018-07-07T17:07:56.344Z,27.93
2018-07-07T17:10:25.153Z,28.01
2018-07-07T17:12:53.985Z,28.10
2018-07-07T17:15:22.902Z,27.87
2018-07-07T17:17:52.311Z,27.98
2018-07-07T17:20:21.036Z,28.05
2018-07-07T17:22:50.505Z,28.11
2018-07-07T17:25:19.268Z,28.02
2018-07-07T17:27:48.511Z,27.97
2018-07-07T17:30:17.485Z,27.81
2018-07-07T17:32:46.193Z,27.75
2018-07-07T17:35:15.241Z,27.33
2018-07-07T17:37:43.985Z,27.41
2018-07-07T17:40:13.293Z,27.45
2018-07-07T17:42:42.006Z,27.41
2018-07-07T17:45:10.731Z,27.44
2018-07-07T17:47:39.437Z,27.17
2018-07-07T17:50:08.062Z,27.18
2018-07-07T17:52:37.074Z,27.10
2018-07-07T17:55:07.920Z,27.14
2018-07-07T17:57:37.744Z,27.22
2018-07-07T18:00:07.586Z,27.16
2018-07-07T18:02:36.260Z,27.29
2018-07-07T18:05:04.965Z,27.26
2018-07-07T18:07:33.624Z,27.25
2018-07-07T18:10:02.266Z,27.21
2018-07-07T18:12:31.759Z,27.12
2018-07-07T18:15:00.419Z,27.17
2018-07-07T18:17:29.206Z,26.91
2018-07-07T18:19:57.978Z,26.75
2018-07-07T18:22:27.520Z,26.80
2018-07-07T18:24:56.346Z,26.70
2018-07-07T18:27:25.071Z,26.55
2018-07-07T18:29:54.131Z,26.58
2018-07-07T18:32:23.125Z,26.57
2018-07-07T18:34:51.732Z,26.63
2018-07-07T18:37:20.427Z,26.37
2018-07-07T18:39:55.268Z,26.37
2018-07-07T18:42:23.878Z,26.34
2018-07-07T18:44:52.581Z,26.35
2018-07-07T18:47:21.589Z,26.47
2018-07-07T18:49:50.310Z,26.40
2018-07-07T18:52:18.957Z,26.46
2018-07-07T18:54:47.993Z,26.41
2018-07-07T18:57:16.636Z,26.37
2018-07-07T18:59:45.365Z,26.43
2018-07-07T19:02:13.968Z,26.42
2018-07-07T19:04:42.633Z,26.37
2018-07-07T19:07:11.267Z,26.28
2018-07-07T19:09:39.968Z,26.21
2018-07-07T19:12:09.033Z,26.06
2018-07-07T19:14:38.118Z,26.10
2018-07-07T19:17:07.204Z,26.00
2018-07-07T19:19:35.891Z,25.94
2018-07-07T19:22:09.955Z,25.87
2018-07-07T19:24:43.967Z,25.94
2018-07-07T19:27:12.640Z,25.91
2018-07-07T19:29:41.370Z,25.85
2018-07-07T19:32:15.177Z,25.87
2018-07-07T19:34:48.855Z,25.91
2018-07-07T19:37:20.435Z,25.85
2018-07-07T19:39:49.531Z,25.85
2018-07-07T19:42:18.535Z,25.79
2018-07-07T19:44:47.190Z,25.68
2018-07-07T19:47:15.881Z,25.58
2018-07-07T19:49:44.694Z,25.50
2018-07-07T19:52:13.403Z,25.46
2018-07-07T19:54:42.160Z,25.49
2018-07-07T19:57:10.909Z,25.52
2018-07-07T19:59:39.601Z,25.50
2018-07-07T20:02:08.334Z,25.48
2018-07-07T20:04:37.262Z,25.35
2018-07-07T20:07:05.986Z,25.32
2018-07-07T20:09:34.675Z,25.33
2018-07-07T20:12:03.684Z,25.25
2018-07-07T20:14:32.586Z,25.21
2018-07-07T20:17:03.848Z,25.13
2018-07-07T20:20:43.192Z,25.08
2018-07-07T20:23:13.160Z,24.99
2018-07-07T20:25:42.133Z,24.81
2018-07-07T20:28:15.881Z,24.78
2018-07-07T20:30:45.283Z,24.73
2018-07-07T20:33:14.049Z,24.71
2018-07-07T20:35:42.865Z,24.65
2018-07-07T20:38:11.486Z,24.56
2018-07-07T20:40:40.292Z,24.54
2018-07-07T20:43:09.341Z,24.53
2018-07-07T20:45:38.003Z,24.48
2018-07-07T20:48:06.663Z,24.43
2018-07-07T20:50:35.362Z,24.39
2018-07-07T20:53:04.164Z,24.29
2018-07-07T20:55:32.864Z,24.31
2018-07-07T20:58:01.649Z,24.28
2018-07-07T21:00:30.327Z,24.22
2018-07-07T21:02:59.516Z,24.20
2018-07-07T21:05:28.160Z,24.16
2018-07-07T21:07:56.999Z,24.13
2018-07-07T21:10:26.097Z,24.12
2018-07-07T21:12:54.782Z,24.11
2018-07-07T21:15:25.119Z,24.04
2018-07-07T21:17:54.142Z,23.96
2018-07-07T21:20:22.807Z,23.98
2018-07-07T21:22:51.686Z,23.89
2018-07-07T21:25:20.680Z,23.82
2018-07-07T21:27:49.470Z,23.84
2018-07-07T21:30:18.331Z,23.78
2018-07-07T21:32:47.153Z,23.72
2018-07-07T21:35:15.838Z,23.68
2018-07-07T21:37:45.422Z,23.59
2018-07-07T21:40:14.576Z,23.57
2018-07-07T21:42:43.287Z,23.52
2018-07-07T21:45:11.969Z,23.52
2018-07-07T21:47:40.648Z,23.51
2018-07-07T21:50:10.823Z,23.47
2018-07-07T21:52:39.523Z,23.46
2018-07-07T21:55:08.537Z,23.37
2018-07-07T21:57:42.559Z,23.32
2018-07-07T22:00:14.923Z,23.29
2018-07-07T22:02:48.833Z,23.25
2018-07-07T22:05:22.794Z,23.25
2018-07-07T22:07:52.063Z,23.26
2018-07-07T22:10:21.133Z,23.28
2018-07-07T22:12:54.081Z,23.25
2018-07-07T22:15:22.706Z,23.17
2018-07-07T22:17:51.327Z,23.11
2018-07-07T22:20:29.562Z,23.07
2018-07-07T22:22:58.172Z,23.04
2018-07-07T22:25:26.849Z,22.98
2018-07-07T22:27:56.152Z,22.95
2018-07-07T22:30:24.844Z,22.92
2018-07-07T22:32:57.608Z,22.90
2018-07-07T22:35:31.534Z,22.85
2018-07-07T22:38:00.322Z,22.77
2018-07-07T22:40:30.268Z,22.69
2018-07-07T22:42:58.897Z,22.70
2018-07-07T22:45:28.259Z,22.66
2018-07-07T22:47:56.915Z,22.67
2018-07-07T22:50:26.010Z,22.63
2018-07-07T22:52:54.659Z,22.56
2018-07-07T22:55:23.280Z,22.53
2018-07-07T22:57:52.576Z,22.46
2018-07-07T23:00:21.364Z,22.42
2018-07-07T23:02:50.749Z,22.39
2018-07-07T23:05:20.185Z,22.39
2018-07-07T23:07:50.081Z,22.33
2018-07-07T23:10:18.724Z,22.30
2018-07-07T23:12:47.501Z,22.27
2018-07-07T23:15:16.893Z,22.29
2018-07-07T23:17:45.627Z,22.25
2018-07-07T23:20:14.260Z,22.21
2018-07-07T23:22:55.945Z,22.02
2018-07-07T23:25:24.742Z,22.02
2018-07-07T23:27:53.526Z,22.06
2018-07-07T23:30:22.368Z,22.01
2018-07-07T23:32:51.686Z,21.99
2018-07-07T23:35:20.357Z,21.97
2018-07-07T23:37:49.066Z,21.90
2018-07-07T23:40:17.822Z,21.87
2018-07-07T23:42:46.406Z,21.76
2018-07-07T23:45:15.205Z,21.74
2018-07-07T23:47:45.328Z,21.70
2018-07-07T23:50:13.902Z,21.64
2018-07-07T23:52:43.367Z,21.65
2018-07-07T23:55:12.895Z,21.61
2018-07-07T23:57:41.580Z,21.57
